createdAt,value
2022-09-25T00:01:31.532Z,28.00
2022-09-25T00:04:01.556Z,31.90
2022-09-25T00:06:30.859Z,32.50
2022-09-25T00:08:59.668Z,33.47
2022-09-25T00:11:29.973Z,28.43
2022-09-25T00:13:59.893Z,27.23
2022-09-25T00:16:30.540Z,27.07
2022-09-25T00:19:18.314Z,30.10
2022-09-25T00:21:48.787Z,28.97
2022-09-25T00:24:16.987Z,35.33
2022-09-25T00:26:45.199Z,37.80
2022-09-25T00:29:18.033Z,36.77
2022-09-25T00:31:46.705Z,38.20
2022-09-25T00:34:16.259Z,39.23
2022-09-25T00:36:44.512Z,40.33
2022-09-25T00:39:12.757Z,34.73
2022-09-25T00:41:41.153Z,28.27
2022-09-25T00:44:42.530Z,24.77
2022-09-25T00:47:13.914Z,23.63
2022-09-25T00:49:43.849Z,25.43
2022-09-25T00:52:14.022Z,28.77
2022-09-25T00:54:45.672Z,24.77
2022-09-25T00:57:16.878Z,27.93
2022-09-25T00:59:48.558Z,29.50
2022-09-25T01:02:24.888Z,29.57
2022-09-25T01:04:57.483Z,27.63
2022-09-25T01:07:25.872Z,28.73
2022-09-25T01:09:55.123Z,28.83
2022-09-25T01:12:25.904Z,27.40
2022-09-25T01:14:55.138Z,25.83
2022-09-25T01:17:29.388Z,27.50
2022-09-25T01:20:10.425Z,26.53
2022-09-25T01:22:52.151Z,29.60
2022-09-25T01:25:35.301Z,30.90
2022-09-25T01:28:19.269Z,28.67
2022-09-25T01:30:55.503Z,31.70
2022-09-25T01:33:28.494Z,33.10
2022-09-25T01:36:03.780Z,31.00
2022-09-25T01:38:36.023Z,32.90
2022-09-25T01:41:09.486Z,30.77
2022-09-25T01:43:41.067Z,31.40
2022-09-25T01:46:16.370Z,39.57
2022-09-25T01:48:48.661Z,35.17
2022-09-25T01:51:19.936Z,36.67
2022-09-25T01:53:52.609Z,31.83
2022-09-25T01:56:33.193Z,33.87
2022-09-25T01:59:06.758Z,35.40
2022-09-25T02:01:41.799Z,32.60
2022-09-25T02:04:15.313Z,35.13
2022-09-25T02:06:52.532Z,35.50
2022-09-25T02:09:27.235Z,35.97
2022-09-25T02:12:00.119Z,39.43
2022-09-25T02:14:34.290Z,35.90
2022-09-25T02:17:10.764Z,41.70
2022-09-25T02:19:56.933Z,41.20
2022-09-25T02:22:30.004Z,56.53
2022-09-25T02:25:03.977Z,50.67
2022-09-25T02:27:34.107Z,47.07
2022-09-25T02:30:02.609Z,46.13
2022-09-25T02:32:34.044Z,46.97
2022-09-25T02:35:02.847Z,51.97
2022-09-25T02:37:31.047Z,49.50
2022-09-25T02:40:02.762Z,43.23
2022-09-25T02:42:40.534Z,47.80
2022-09-25T02:45:16.697Z,49.27
2022-09-25T02:47:58.422Z,49.00
2022-09-25T02:50:30.889Z,38.23
2022-09-25T02:53:07.150Z,42.77
2022-09-25T02:55:41.173Z,42.93
2022-09-25T02:58:14.735Z,43.13
2022-09-25T03:00:47.362Z,33.27
2022-09-25T03:03:20.002Z,48.30
2022-09-25T03:05:50.505Z,36.97
2022-09-25T03:08:36.709Z,34.90
2022-09-25T03:11:05.819Z,44.33
2022-09-25T03:13:34.643Z,29.37
2022-09-25T03:16:05.837Z,35.27
2022-09-25T03:18:35.689Z,38.23
2022-09-25T03:21:04.286Z,35.17
2022-09-25T03:23:33.262Z,46.93
2022-09-25T03:26:01.568Z,40.83
2022-09-25T03:28:30.176Z,39.73
2022-09-25T03:31:03.038Z,49.93
2022-09-25T03:33:36.346Z,49.83
2022-09-25T03:36:08.579Z,50.53
2022-09-25T03:38:36.960Z,52.47
2022-09-25T03:41:08.801Z,46.23
2022-09-25T03:43:37.748Z,46.60
2022-09-25T03:46:06.404Z,59.93
2022-09-25T03:48:36.412Z,59.27
2022-09-25T03:51:05.409Z,45.13
2022-09-25T03:53:33.976Z,47.70
2022-09-25T03:56:03.055Z,37.33
2022-09-25T03:58:31.561Z,38.07
2022-09-25T04:00:59.937Z,31.13
2022-09-25T04:03:29.464Z,35.93
2022-09-25T04:06:00.685Z,36.57
2022-09-25T04:08:29.455Z,31.07
2022-09-25T04:10:59.242Z,36.27
2022-09-25T04:13:30.066Z,34.73
2022-09-25T04:16:01.134Z,30.30
2022-09-25T04:18:31.819Z,28.23
2022-09-25T04:21:01.591Z,25.93
2022-09-25T04:23:30.003Z,27.07
2022-09-25T04:25:58.430Z,30.20
2022-09-25T04:28:27.653Z,28.17
2022-09-25T04:30:55.986Z,31.87
2022-09-25T04:33:41.741Z,107.67
2022-09-25T04:36:11.966Z,143.13
2022-09-25T04:38:40.963Z,138.97
2022-09-25T04:41:09.548Z,117.60
2022-09-25T04:43:38.204Z,91.30
2022-09-25T04:46:08.919Z,175.73
2022-09-25T04:48:37.917Z,223.70
2022-09-25T04:51:07.096Z,205.07
2022-09-25T04:53:38.481Z,360.00
2022-09-25T04:56:13.877Z,256.10
2022-09-25T04:58:45.830Z,385.10
2022-09-25T05:01:14.252Z,328.90
2022-09-25T05:03:43.030Z,285.73
2022-09-25T05:06:11.629Z,308.73
2022-09-25T05:08:41.148Z,156.73
2022-09-25T05:11:09.598Z,153.37
2022-09-25T05:13:37.692Z,233.27
2022-09-25T05:16:06.160Z,169.40
2022-09-25T05:18:34.398Z,200.03
2022-09-25T05:21:05.287Z,235.07
2022-09-25T05:23:33.477Z,167.00
2022-09-25T05:26:03.083Z,204.77
2022-09-25T05:28:32.055Z,180.70
2022-09-25T05:31:02.856Z,82.53
2022-09-25T05:33:31.234Z,155.73
2022-09-25T05:36:02.700Z,84.37
2022-09-25T05:38:33.230Z,186.40
2022-09-25T05:41:05.463Z,140.90
2022-09-25T05:43:34.518Z,76.00
2022-09-25T05:46:03.838Z,78.37
2022-09-25T05:48:32.166Z,74.90
2022-09-25T05:51:00.523Z,171.97
2022-09-25T05:53:30.511Z,260.50
2022-09-25T05:56:00.561Z,144.33
2022-09-25T05:58:31.697Z,93.53
2022-09-25T06:01:04.233Z,71.17
2022-09-25T06:03:32.748Z,76.37
2022-09-25T06:06:02.156Z,65.83
2022-09-25T06:08:32.104Z,65.77
2022-09-25T06:11:01.338Z,70.07
2022-09-25T06:13:33.142Z,86.37
2022-09-25T06:16:02.685Z,111.63
2022-09-25T06:18:30.916Z,84.27
2022-09-25T06:21:02.424Z,68.70
2022-09-25T06:23:31.198Z,62.33
2022-09-25T06:26:03.205Z,89.63
2022-09-25T06:28:33.031Z,65.97
2022-09-25T06:31:02.179Z,60.90
2022-09-25T06:33:31.195Z,72.57
2022-09-25T06:36:00.358Z,61.07
2022-09-25T06:38:28.521Z,65.23
2022-09-25T06:40:59.764Z,55.50
2022-09-25T06:43:28.698Z,70.87
2022-09-25T06:46:02.496Z,64.93
2022-09-25T06:48:31.217Z,50.40
2022-09-25T06:51:01.043Z,48.40
2022-09-25T06:53:29.349Z,45.07
2022-09-25T06:55:59.831Z,41.63
2022-09-25T06:58:28.926Z,43.83
2022-09-25T07:00:58.983Z,44.67
2022-09-25T07:03:44.846Z,41.13
2022-09-25T07:06:15.093Z,46.90
2022-09-25T07:08:44.119Z,53.07
2022-09-25T07:11:14.777Z,74.13
2022-09-25T07:13:43.450Z,55.40
2022-09-25T07:16:15.898Z,49.77
2022-09-25T07:18:44.897Z,60.67
2022-09-25T07:21:16.219Z,48.33
2022-09-25T07:23:44.930Z,54.40
2022-09-25T07:26:15.564Z,48.47
2022-09-25T07:28:45.348Z,42.73
2022-09-25T07:31:17.417Z,40.67
2022-09-25T07:33:46.197Z,42.83
2022-09-25T07:36:15.516Z,44.60
2022-09-25T07:38:46.177Z,46.93
2022-09-25T07:41:14.819Z,35.03
2022-09-25T07:43:43.457Z,39.23
2022-09-25T07:46:12.588Z,36.30
2022-09-25T07:48:42.176Z,37.37
2022-09-25T07:51:12.758Z,39.20
2022-09-25T07:53:42.696Z,32.40
2022-09-25T07:56:12.004Z,33.03
2022-09-25T07:58:40.822Z,30.30
2022-09-25T08:01:12.016Z,29.83
2022-09-25T08:03:41.927Z,28.57
2022-09-25T08:06:12.499Z,28.17
2022-09-25T08:08:41.900Z,28.47
2022-09-25T08:11:11.504Z,26.93
2022-09-25T08:13:40.633Z,25.17
2022-09-25T08:16:13.499Z,25.23
2022-09-25T08:18:45.497Z,23.57
2022-09-25T08:21:15.669Z,25.43
2022-09-25T08:23:47.929Z,22.80
2022-09-25T08:26:16.994Z,21.10
2022-09-25T08:28:45.694Z,23.83
2022-09-25T08:31:14.827Z,24.00
2022-09-25T08:33:47.440Z,20.47
2022-09-25T08:36:16.367Z,19.93
2022-09-25T08:38:45.571Z,19.87
2022-09-25T08:41:18.583Z,19.13
2022-09-25T08:43:56.816Z,19.43
2022-09-25T08:46:49.072Z,19.20
2022-09-25T08:49:23.613Z,18.33
2022-09-25T08:51:54.739Z,17.57
2022-09-25T08:54:25.533Z,17.43
2022-09-25T08:56:57.201Z,17.33
2022-09-25T08:59:29.642Z,16.83
2022-09-25T09:02:00.709Z,16.70
2022-09-25T09:04:33.388Z,23.73
2022-09-25T09:07:26.448Z,20.20
2022-09-25T09:10:01.782Z,18.30
2022-09-25T09:12:36.984Z,18.90
2022-09-25T09:15:20.029Z,20.13
2022-09-25T09:17:48.448Z,19.57
2022-09-25T09:20:21.047Z,19.73
2022-09-25T09:22:52.886Z,18.80
2022-09-25T09:25:28.957Z,19.87
2022-09-25T09:28:18.044Z,19.37
2022-09-25T09:30:57.099Z,20.50
2022-09-25T09:33:41.705Z,18.77
2022-09-25T09:36:20.602Z,19.57
2022-09-25T09:38:58.039Z,18.87
2022-09-25T09:41:40.302Z,18.77
2022-09-25T09:44:25.535Z,19.37
2022-09-25T09:47:03.195Z,18.83
2022-09-25T09:49:37.604Z,18.83
2022-09-25T09:52:12.994Z,18.93
2022-09-25T09:54:46.208Z,19.17
2022-09-25T09:57:19.982Z,19.23
2022-09-25T09:59:53.062Z,20.63
2022-09-25T10:02:33.723Z,17.97
2022-09-25T10:05:05.991Z,18.60
2022-09-25T10:07:39.371Z,18.98
2022-09-25T10:10:15.555Z,22.03
2022-09-25T10:12:48.005Z,23.40
2022-09-25T10:15:25.447Z,18.27
2022-09-25T10:17:55.438Z,19.43
2022-09-25T10:20:25.949Z,18.20
2022-09-25T10:22:57.273Z,17.30
2022-09-25T10:25:38.270Z,20.07
2022-09-25T10:28:26.683Z,19.87
2022-09-25T10:30:56.942Z,20.40
2022-09-25T10:33:27.389Z,20.80
2022-09-25T10:35:56.276Z,25.27
2022-09-25T10:38:39.229Z,21.77
2022-09-25T10:41:10.401Z,23.13
2022-09-25T10:43:52.701Z,24.03
2022-09-25T10:46:43.696Z,23.87
2022-09-25T10:49:37.336Z,24.47
2022-09-25T10:52:07.178Z,25.90
2022-09-25T10:54:43.636Z,26.70
2022-09-25T10:57:18.612Z,28.77
2022-09-25T10:59:51.948Z,33.43
2022-09-25T11:02:35.986Z,25.60
2022-09-25T11:05:05.129Z,28.00
2022-09-25T11:07:34.594Z,26.37
2022-09-25T11:10:05.060Z,27.83
2022-09-25T11:12:33.665Z,29.27
2022-09-25T11:15:06.006Z,29.47
2022-09-25T11:17:39.377Z,26.70
2022-09-25T11:20:22.644Z,27.10
2022-09-25T11:22:59.444Z,28.57
2022-09-25T11:25:40.561Z,31.77
2022-09-25T11:28:16.020Z,30.33
2022-09-25T11:30:49.423Z,24.43
2022-09-25T11:33:25.578Z,26.30
2022-09-25T11:35:57.890Z,23.93
2022-09-25T11:38:51.982Z,23.20
2022-09-25T11:41:30.034Z,21.03
2022-09-25T11:44:19.934Z,22.77
2022-09-25T11:46:56.658Z,23.13
2022-09-25T11:49:28.729Z,22.40
2022-09-25T11:52:22.921Z,22.57
2022-09-25T11:55:24.411Z,21.63
2022-09-25T11:58:02.587Z,22.20
2022-09-25T12:00:41.618Z,21.77
2022-09-25T12:03:28.404Z,27.90
2022-09-25T12:06:25.228Z,25.58
2022-09-25T12:09:10.356Z,22.58
2022-09-25T12:11:47.604Z,33.67
2022-09-25T12:14:24.222Z,24.17
2022-09-25T12:17:01.996Z,29.75
2022-09-25T12:19:38.391Z,23.97
2022-09-25T12:22:13.978Z,23.75
2022-09-25T12:24:56.497Z,22.75
2022-09-25T12:27:36.469Z,23.70
2022-09-25T12:30:17.598Z,22.70
2022-09-25T12:33:19.816Z,21.58
2022-09-25T12:35:54.478Z,24.15
2022-09-25T12:38:33.395Z,20.52
2022-09-25T12:41:08.888Z,26.42
2022-09-25T12:43:44.064Z,19.50
2022-09-25T12:46:20.657Z,21.58
2022-09-25T12:48:53.136Z,18.50
2022-09-25T12:51:28.101Z,18.35
2022-09-25T12:54:00.268Z,17.85
2022-09-25T12:56:33.477Z,17.45
2022-09-25T12:59:10.983Z,18.17
2022-09-25T13:01:46.768Z,17.65
2022-09-25T13:04:35.360Z,17.00
2022-09-25T13:07:14.740Z,15.98
2022-09-25T13:09:45.275Z,17.52
2022-09-25T13:12:22.842Z,17.25
2022-09-25T13:14:54.840Z,16.88
2022-09-25T13:17:24.909Z,17.10
2022-09-25T13:19:53.535Z,16.90
2022-09-25T13:22:25.685Z,16.42
2022-09-25T13:25:02.153Z,16.52
2022-09-25T13:27:39.619Z,15.65
2022-09-25T13:30:20.281Z,16.75
2022-09-25T13:32:52.701Z,15.25
2022-09-25T13:35:23.317Z,16.00
2022-09-25T13:37:55.245Z,15.55
2022-09-25T13:40:43.014Z,15.15
2022-09-25T13:43:20.752Z,15.50
2022-09-25T13:45:50.323Z,16.65
2022-09-25T13:48:37.912Z,16.15
2022-09-25T13:51:27.813Z,17.27
2022-09-25T13:53:59.167Z,16.65
2022-09-25T13:56:48.354Z,17.25
2022-09-25T13:59:38.440Z,18.63
2022-09-25T14:02:43.854Z,15.82
2022-09-25T14:05:18.466Z,17.30
2022-09-25T14:07:49.223Z,17.90
2022-09-25T14:10:19.059Z,18.10
2022-09-25T14:12:50.400Z,17.30
2022-09-25T14:15:26.868Z,17.65
2022-09-25T14:17:58.073Z,17.20
2022-09-25T14:20:39.148Z,19.10
2022-09-25T14:23:16.089Z,18.33
2022-09-25T14:25:47.058Z,15.07
2022-09-25T14:28:20.701Z,19.80
2022-09-25T14:31:10.595Z,22.80
2022-09-25T14:34:02.601Z,18.90
2022-09-25T14:36:38.170Z,18.13
2022-09-25T14:39:22.946Z,21.33
2022-09-25T14:42:45.827Z,19.60
2022-09-25T14:45:37.593Z,18.43
2022-09-25T14:48:11.724Z,19.47
2022-09-25T14:50:44.719Z,17.10
2022-09-25T14:53:19.293Z,17.80
2022-09-25T14:55:52.949Z,16.13
2022-09-25T14:58:27.757Z,13.30
2022-09-25T15:00:59.069Z,14.23
2022-09-25T15:03:31.457Z,13.43
2022-09-25T15:06:02.371Z,15.53
2022-09-25T15:08:37.557Z,11.93
2022-09-25T15:11:12.826Z,14.70
2022-09-25T15:13:42.253Z,10.70
2022-09-25T15:16:34.009Z,10.27
2022-09-25T15:19:04.322Z,9.80
2022-09-25T15:21:34.921Z,9.87
2022-09-25T15:24:10.902Z,8.80
2022-09-25T15:26:45.516Z,10.37
2022-09-25T15:29:18.702Z,9.13
2022-09-25T15:31:51.421Z,10.27
2022-09-25T15:34:25.169Z,9.47
2022-09-25T15:36:53.549Z,9.43
2022-09-25T15:39:25.507Z,9.20
2022-09-25T15:41:54.034Z,10.20
2022-09-25T15:44:23.801Z,10.40
2022-09-25T15:46:54.136Z,10.10
2022-09-25T15:49:26.846Z,11.20
2022-09-25T15:52:01.351Z,11.43
2022-09-25T15:54:37.947Z,11.83
2022-09-25T15:57:11.163Z,12.23
2022-09-25T15:59:59.975Z,12.27
2022-09-25T16:02:52.066Z,9.23
2022-09-25T16:05:33.096Z,11.07
2022-09-25T16:08:29.482Z,62.73
2022-09-25T16:11:15.674Z,11.20
2022-09-25T16:13:48.830Z,9.70
2022-09-25T16:16:24.345Z,10.57
2022-09-25T16:18:54.674Z,8.93
2022-09-25T16:21:27.689Z,8.17
2022-09-25T16:24:02.032Z,8.13
2022-09-25T16:26:38.652Z,8.80
2022-09-25T16:29:20.199Z,8.20
2022-09-25T16:31:53.640Z,7.13
2022-09-25T16:34:26.306Z,6.73
2022-09-25T16:36:58.049Z,6.70
2022-09-25T16:39:29.728Z,7.80
2022-09-25T16:42:00.583Z,7.53
2022-09-25T16:44:47.227Z,7.20
2022-09-25T16:47:19.253Z,6.57
2022-09-25T16:49:48.871Z,6.83
2022-09-25T16:52:21.716Z,7.73
2022-09-25T16:54:56.908Z,7.53
2022-09-25T16:57:29.225Z,7.67
2022-09-25T16:59:57.790Z,9.13
2022-09-25T17:02:37.116Z,10.70
2022-09-25T17:05:11.679Z,13.73
2022-09-25T17:07:39.888Z,17.40
2022-09-25T17:10:12.962Z,15.10
2022-09-25T17:12:43.802Z,11.93
2022-09-25T17:15:18.229Z,12.07
2022-09-25T17:17:46.791Z,12.13
2022-09-25T17:20:15.586Z,8.07
2022-09-25T17:22:43.977Z,9.57
2022-09-25T17:25:26.053Z,8.73
2022-09-25T17:27:56.153Z,7.90
2022-09-25T17:30:24.341Z,5.60
2022-09-25T17:32:52.831Z,4.87
2022-09-25T17:35:34.453Z,5.37
2022-09-25T17:38:02.712Z,7.03
2022-09-25T17:40:33.247Z,6.53
2022-09-25T17:43:03.075Z,7.03
2022-09-25T17:45:36.579Z,5.40
2022-09-25T17:48:05.278Z,7.83
2022-09-25T17:50:35.558Z,7.33
2022-09-25T17:53:05.171Z,9.40
2022-09-25T17:55:34.333Z,5.50
2022-09-25T17:58:03.868Z,6.47
2022-09-25T18:00:32.285Z,6.77
2022-09-25T18:03:00.913Z,11.03
2022-09-25T18:05:31.717Z,6.80
2022-09-25T18:08:00.101Z,4.90
2022-09-25T18:10:29.526Z,4.77
2022-09-25T18:12:59.091Z,4.03
2022-09-25T18:15:29.485Z,3.23
2022-09-25T18:17:57.909Z,3.50
2022-09-25T18:20:44.154Z,3.90
2022-09-25T18:23:12.749Z,3.80
2022-09-25T18:25:45.152Z,2.83
2022-09-25T18:28:20.314Z,3.20
2022-09-25T18:30:49.994Z,3.70
2022-09-25T18:33:18.203Z,4.80
2022-09-25T18:35:46.327Z,4.70
2022-09-25T18:38:14.564Z,5.00
2022-09-25T18:40:43.069Z,4.90
2022-09-25T18:43:11.632Z,5.23
2022-09-25T18:45:41.975Z,7.40
2022-09-25T18:48:11.538Z,9.83
2022-09-25T18:50:41.890Z,7.77
2022-09-25T18:53:10.208Z,6.80
2022-09-25T18:55:41.226Z,6.80
2022-09-25T18:58:10.024Z,6.37
2022-09-25T19:00:38.949Z,6.80
2022-09-25T19:03:07.655Z,24.93
2022-09-25T19:05:37.306Z,6.63
2022-09-25T19:08:05.535Z,6.37
2022-09-25T19:10:34.589Z,8.73
2022-09-25T19:13:02.900Z,7.50
2022-09-25T19:15:31.269Z,8.10
2022-09-25T19:18:01.020Z,8.20
2022-09-25T19:20:29.423Z,8.60
2022-09-25T19:23:00.930Z,7.93
2022-09-25T19:25:29.178Z,7.90
2022-09-25T19:27:57.513Z,14.17
2022-09-25T19:30:25.771Z,15.43
2022-09-25T19:32:53.869Z,8.03
2022-09-25T19:35:22.247Z,7.37
2022-09-25T19:37:50.534Z,9.10
2022-09-25T19:40:38.880Z,11.37
2022-09-25T19:43:08.272Z,7.93
2022-09-25T19:45:37.261Z,7.77
2022-09-25T19:48:05.642Z,8.73
2022-09-25T19:50:33.897Z,8.90
2022-09-25T19:53:02.077Z,8.93
2022-09-25T19:55:32.048Z,10.43
2022-09-25T19:58:00.292Z,9.50
2022-09-25T20:00:28.704Z,9.23
2022-09-25T20:02:57.293Z,10.60
2022-09-25T20:05:27.816Z,14.00
2022-09-25T20:07:59.706Z,11.23
2022-09-25T20:10:31.752Z,10.77
2022-09-25T20:13:00.849Z,17.27
2022-09-25T20:15:32.703Z,13.03
2022-09-25T20:18:03.360Z,11.63
2022-09-25T20:20:32.716Z,11.57
2022-09-25T20:23:02.067Z,10.53
2022-09-25T20:25:33.014Z,8.73
2022-09-25T20:28:03.239Z,9.30
2022-09-25T20:30:35.438Z,8.63
2022-09-25T20:33:04.760Z,9.43
2022-09-25T20:35:34.309Z,9.70
2022-09-25T20:38:02.804Z,9.27
2022-09-25T20:40:32.531Z,9.23
2022-09-25T20:43:01.343Z,9.90
2022-09-25T20:45:29.746Z,11.47
2022-09-25T20:47:59.498Z,12.80
2022-09-25T20:50:28.090Z,16.20
2022-09-25T20:52:57.463Z,17.53
2022-09-25T20:55:25.977Z,22.47
2022-09-25T20:57:55.836Z,18.43
2022-09-25T21:00:24.180Z,21.50
2022-09-25T21:02:52.657Z,26.10
2022-09-25T21:05:21.114Z,17.87
2022-09-25T21:07:49.489Z,17.20
2022-09-25T21:10:18.471Z,18.73
2022-09-25T21:12:47.084Z,21.33
2022-09-25T21:15:17.894Z,20.07
2022-09-25T21:17:47.247Z,23.10
2022-09-25T21:20:16.071Z,20.13
2022-09-25T21:22:45.151Z,24.47
2022-09-25T21:25:14.505Z,25.60
2022-09-25T21:27:44.051Z,28.30
2022-09-25T21:30:13.718Z,25.67
2022-09-25T21:32:44.076Z,26.27
2022-09-25T21:35:12.585Z,35.33
2022-09-25T21:37:40.899Z,48.63
2022-09-25T21:40:09.866Z,32.83
2022-09-25T21:42:38.142Z,37.57
2022-09-25T21:45:07.872Z,62.00
2022-09-25T21:47:36.144Z,41.63
2022-09-25T21:50:06.545Z,45.03
2022-09-25T21:52:34.697Z,53.93
2022-09-25T21:55:03.006Z,35.57
2022-09-25T21:57:31.316Z,28.83
2022-09-25T21:59:59.543Z,29.43
2022-09-25T22:02:31.226Z,34.93
2022-09-25T22:04:59.469Z,27.80
2022-09-25T22:07:29.200Z,28.17
2022-09-25T22:09:57.772Z,26.67
2022-09-25T22:12:26.150Z,23.27
2022-09-25T22:14:54.431Z,24.80
2022-09-25T22:17:22.937Z,23.53
2022-09-25T22:19:51.203Z,21.50
2022-09-25T22:22:19.364Z,22.43
2022-09-25T22:24:49.049Z,20.80
2022-09-25T22:27:17.366Z,20.33
2022-09-25T22:29:45.824Z,20.40
2022-09-25T22:32:14.122Z,17.63
2022-09-25T22:34:42.395Z,23.17
2022-09-25T22:37:10.976Z,22.27
2022-09-25T22:39:39.230Z,20.23
2022-09-25T22:42:09.012Z,17.70
2022-09-25T22:44:37.215Z,19.97
2022-09-25T22:47:05.694Z,18.70
2022-09-25T22:49:34.089Z,17.37
2022-09-25T22:52:02.712Z,21.17
2022-09-25T22:54:30.971Z,29.03
2022-09-25T22:56:59.315Z,24.40
2022-09-25T22:59:29.575Z,25.13
2022-09-25T23:01:58.184Z,21.97
2022-09-25T23:04:26.714Z,18.37
2022-09-25T23:06:55.189Z,22.07
2022-09-25T23:09:26.383Z,18.00
2022-09-25T23:11:55.576Z,18.00
2022-09-25T23:14:26.616Z,21.27
2022-09-25T23:16:56.945Z,18.53
2022-09-25T23:19:26.226Z,18.00
2022-09-25T23:21:55.569Z,18.43
2022-09-25T23:24:24.923Z,15.70
2022-09-25T23:26:54.335Z,16.07
2022-09-25T23:29:23.690Z,20.53
2022-09-25T23:31:52.429Z,18.20
2022-09-25T23:34:22.137Z,15.17
2022-09-25T23:36:50.383Z,16.37
2022-09-25T23:39:20.387Z,16.83
2022-09-25T23:41:48.757Z,19.60
2022-09-25T23:44:17.415Z,18.37
2022-09-25T23:46:46.065Z,18.03
2022-09-25T23:49:14.866Z,18.03
2022-09-25T23:51:46.241Z,20.33
2022-09-25T23:54:14.932Z,21.83
2022-09-25T23:56:43.820Z,22.93
2022-09-25T23:59:13.345Z,20.23
